sensor_id;sensor_type;location;lat;lon;timestamp;P1;durP1;ratioP1;P2;durP2;ratioP2
52470;SDS011;38382;53.160;7.026;2022-07-23T00:00:53;4.50;;;2.70;;
52470;SDS011;38382;53.160;7.026;2022-07-23T00:03:19;6.18;;;3.03;;
52470;SDS011;38382;53.160;7.026;2022-07-23T00:05:44;6.53;;;3.55;;
52470;SDS011;38382;53.160;7.026;2022-07-23T00:08:10;6.65;;;3.10;;
52470;SDS011;38382;53.160;7.026;2022-07-23T00:10:36;5.35;;;2.58;;
52470;SDS011;38382;53.160;7.026;2022-07-23T00:13:02;6.53;;;2.58;;
52470;SDS011;38382;53.160;7.026;2022-07-23T00:15:27;4.97;;;2.60;;
52470;SDS011;38382;53.160;7.026;2022-07-23T00:17:53;4.45;;;2.50;;
52470;SDS011;38382;53.160;7.026;2022-07-23T00:20:19;3.00;;;2.33;;
52470;SDS011;38382;53.160;7.026;2022-07-23T00:22:49;8.00;;;2.92;;
52470;SDS011;38382;53.160;7.026;2022-07-23T00:25:16;4.22;;;2.20;;
52470;SDS011;38382;53.160;7.026;2022-07-23T00:27:42;7.60;;;3.05;;
52470;SDS011;38382;53.160;7.026;2022-07-23T00:30:08;5.70;;;3.58;;
52470;SDS011;38382;53.160;7.026;2022-07-23T00:32:47;5.65;;;3.15;;
52470;SDS011;38382;53.160;7.026;2022-07-23T00:35:21;3.85;;;2.92;;
52470;SDS011;38382;53.160;7.026;2022-07-23T00:37:47;4.40;;;2.65;;
52470;SDS011;38382;53.160;7.026;2022-07-23T00:40:13;4.22;;;3.03;;
52470;SDS011;38382;53.160;7.026;2022-07-23T00:42:39;5.88;;;3.72;;
52470;SDS011;38382;53.160;7.026;2022-07-23T00:45:05;6.35;;;3.25;;
52470;SDS011;38382;53.160;7.026;2022-07-23T00:47:32;7.90;;;3.72;;
52470;SDS011;38382;53.160;7.026;2022-07-23T00:49:58;7.13;;;3.47;;
52470;SDS011;38382;53.160;7.026;2022-07-23T00:52:24;5.57;;;3.17;;
52470;SDS011;38382;53.160;7.026;2022-07-23T00:54:50;7.88;;;3.70;;
52470;SDS011;38382;53.160;7.026;2022-07-23T00:57:16;7.53;;;3.53;;
52470;SDS011;38382;53.160;7.026;2022-07-23T00:59:43;5.43;;;3.10;;
52470;SDS011;38382;53.160;7.026;2022-07-23T01:02:09;6.50;;;3.10;;
52470;SDS011;38382;53.160;7.026;2022-07-23T01:04:35;6.82;;;3.38;;
52470;SDS011;38382;53.160;7.026;2022-07-23T01:07:01;7.55;;;3.10;;
52470;SDS011;38382;53.160;7.026;2022-07-23T01:09:27;4.75;;;2.50;;
52470;SDS011;38382;53.160;7.026;2022-07-23T01:11:54;5.10;;;2.97;;
52470;SDS011;38382;53.160;7.026;2022-07-23T01:14:20;3.65;;;2.60;;
52470;SDS011;38382;53.160;7.026;2022-07-23T01:16:48;5.82;;;2.65;;
52470;SDS011;38382;53.160;7.026;2022-07-23T01:19:15;4.82;;;2.75;;
52470;SDS011;38382;53.160;7.026;2022-07-23T01:21:43;5.50;;;2.65;;
52470;SDS011;38382;53.160;7.026;2022-07-23T01:24:11;5.03;;;2.30;;
52470;SDS011;38382;53.160;7.026;2022-07-23T01:26:37;5.15;;;3.05;;
52470;SDS011;38382;53.160;7.026;2022-07-23T01:29:04;6.20;;;3.10;;
52470;SDS011;38382;53.160;7.026;2022-07-23T01:31:31;5.22;;;2.45;;
52470;SDS011;38382;53.160;7.026;2022-07-23T01:33:57;8.48;;;3.20;;
52470;SDS011;38382;53.160;7.026;2022-07-23T01:36:23;5.70;;;2.90;;
52470;SDS011;38382;53.160;7.026;2022-07-23T01:38:49;3.75;;;2.55;;
52470;SDS011;38382;53.160;7.026;2022-07-23T01:41:15;7.85;;;3.42;;
52470;SDS011;38382;53.160;7.026;2022-07-23T01:43:41;7.90;;;3.10;;
52470;SDS011;38382;53.160;7.026;2022-07-23T01:46:07;6.80;;;2.83;;
52470;SDS011;38382;53.160;7.026;2022-07-23T01:48:33;6.53;;;2.80;;
52470;SDS011;38382;53.160;7.026;2022-07-23T01:50:58;6.03;;;3.28;;
52470;SDS011;38382;53.160;7.026;2022-07-23T01:53:24;5.32;;;2.63;;
52470;SDS011;38382;53.160;7.026;2022-07-23T01:55:50;5.40;;;2.75;;
52470;SDS011;38382;53.160;7.026;2022-07-23T01:58:15;6.97;;;2.90;;
52470;SDS011;38382;53.160;7.026;2022-07-23T02:00:41;5.03;;;2.90;;
52470;SDS011;38382;53.160;7.026;2022-07-23T02:03:07;6.93;;;2.97;;
52470;SDS011;38382;53.160;7.026;2022-07-23T02:05:33;10.38;;;3.20;;
52470;SDS011;38382;53.160;7.026;2022-07-23T02:07:59;5.05;;;2.72;;
52470;SDS011;38382;53.160;7.026;2022-07-23T02:10:25;5.22;;;3.20;;
52470;SDS011;38382;53.160;7.026;2022-07-23T02:12:52;5.93;;;2.70;;
52470;SDS011;38382;53.160;7.026;2022-07-23T02:15:18;6.50;;;2.72;;
52470;SDS011;38382;53.160;7.026;2022-07-23T02:17:45;5.07;;;3.10;;
52470;SDS011;38382;53.160;7.026;2022-07-23T02:20:10;5.95;;;3.00;;
52470;SDS011;38382;53.160;7.026;2022-07-23T02:22:37;5.35;;;2.97;;
52470;SDS011;38382;53.160;7.026;2022-07-23T02:25:03;3.88;;;2.58;;
52470;SDS011;38382;53.160;7.026;2022-07-23T02:27:30;5.78;;;2.85;;
52470;SDS011;38382;53.160;7.026;2022-07-23T02:29:56;6.00;;;3.25;;
52470;SDS011;38382;53.160;7.026;2022-07-23T02:32:22;4.57;;;2.50;;
52470;SDS011;38382;53.160;7.026;2022-07-23T02:34:48;6.32;;;3.28;;
52470;SDS011;38382;53.160;7.026;2022-07-23T02:37:14;5.97;;;3.33;;
52470;SDS011;38382;53.160;7.026;2022-07-23T02:39:43;5.78;;;3.00;;
52470;SDS011;38382;53.160;7.026;2022-07-23T02:42:09;6.40;;;3.55;;
52470;SDS011;38382;53.160;7.026;2022-07-23T02:44:35;5.75;;;2.92;;
52470;SDS011;38382;53.160;7.026;2022-07-23T02:47:01;6.75;;;2.88;;
52470;SDS011;38382;53.160;7.026;2022-07-23T02:49:26;7.78;;;3.65;;
52470;SDS011;38382;53.160;7.026;2022-07-23T02:51:52;4.53;;;2.60;;
52470;SDS011;38382;53.160;7.026;2022-07-23T02:54:18;7.05;;;3.50;;
52470;SDS011;38382;53.160;7.026;2022-07-23T02:56:44;7.55;;;3.65;;
52470;SDS011;38382;53.160;7.026;2022-07-23T02:59:11;5.03;;;2.97;;
52470;SDS011;38382;53.160;7.026;2022-07-23T03:01:36;4.95;;;3.40;;
52470;SDS011;38382;53.160;7.026;2022-07-23T03:04:02;6.40;;;3.05;;
52470;SDS011;38382;53.160;7.026;2022-07-23T03:06:28;4.57;;;2.75;;
52470;SDS011;38382;53.160;7.026;2022-07-23T03:08:54;7.40;;;4.03;;
52470;SDS011;38382;53.160;7.026;2022-07-23T03:11:19;8.15;;;3.80;;
52470;SDS011;38382;53.160;7.026;2022-07-23T03:13:45;4.82;;;3.15;;
52470;SDS011;38382;53.160;7.026;2022-07-23T03:16:11;4.30;;;3.20;;
52470;SDS011;38382;53.160;7.026;2022-07-23T03:18:37;7.00;;;4.05;;
52470;SDS011;38382;53.160;7.026;2022-07-23T03:21:02;4.90;;;3.20;;
52470;SDS011;38382;53.160;7.026;2022-07-23T03:23:28;5.03;;;3.20;;
52470;SDS011;38382;53.160;7.026;2022-07-23T03:25:54;4.38;;;3.15;;
52470;SDS011;38382;53.160;7.026;2022-07-23T03:28:20;5.68;;;3.47;;
52470;SDS011;38382;53.160;7.026;2022-07-23T03:30:46;8.63;;;4.32;;
52470;SDS011;38382;53.160;7.026;2022-07-23T03:33:12;9.13;;;3.90;;
52470;SDS011;38382;53.160;7.026;2022-07-23T03:35:39;6.45;;;3.80;;
52470;SDS011;38382;53.160;7.026;2022-07-23T03:38:05;6.85;;;4.10;;
52470;SDS011;38382;53.160;7.026;2022-07-23T03:40:31;4.45;;;2.83;;
52470;SDS011;38382;53.160;7.026;2022-07-23T03:42:56;10.23;;;3.92;;
52470;SDS011;38382;53.160;7.026;2022-07-23T03:45:22;7.28;;;4.50;;
52470;SDS011;38382;53.160;7.026;2022-07-23T03:47:48;5.00;;;3.53;;
52470;SDS011;38382;53.160;7.026;2022-07-23T03:50:13;6.78;;;3.00;;
52470;SDS011;38382;53.160;7.026;2022-07-23T03:52:39;5.65;;;3.50;;
52470;SDS011;38382;53.160;7.026;2022-07-23T03:55:05;6.60;;;3.65;;
52470;SDS011;38382;53.160;7.026;2022-07-23T03:57:31;6.00;;;3.72;;
52470;SDS011;38382;53.160;7.026;2022-07-23T03:59:57;5.45;;;4.15;;
52470;SDS011;38382;53.160;7.026;2022-07-23T04:02:23;6.35;;;3.63;;
52470;SDS011;38382;53.160;7.026;2022-07-23T04:04:49;6.30;;;4.40;;
52470;SDS011;38382;53.160;7.026;2022-07-23T04:07:15;6.93;;;4.45;;
52470;SDS011;38382;53.160;7.026;2022-07-23T04:09:42;8.65;;;4.25;;
52470;SDS011;38382;53.160;7.026;2022-07-23T04:12:08;7.97;;;4.55;;
52470;SDS011;38382;53.160;7.026;2022-07-23T04:14:34;5.53;;;3.50;;
52470;SDS011;38382;53.160;7.026;2022-07-23T04:17:00;6.43;;;4.38;;
52470;SDS011;38382;53.160;7.026;2022-07-23T04:19:26;7.20;;;3.90;;
52470;SDS011;38382;53.160;7.026;2022-07-23T04:21:52;9.98;;;3.70;;
52470;SDS011;38382;53.160;7.026;2022-07-23T04:24:17;6.50;;;4.35;;
52470;SDS011;38382;53.160;7.026;2022-07-23T04:26:44;5.80;;;3.33;;
52470;SDS011;38382;53.160;7.026;2022-07-23T04:29:10;7.07;;;4.22;;
52470;SDS011;38382;53.160;7.026;2022-07-23T04:31:36;6.80;;;3.97;;
52470;SDS011;38382;53.160;7.026;2022-07-23T04:34:01;10.02;;;4.32;;
52470;SDS011;38382;53.160;7.026;2022-07-23T04:36:27;5.18;;;3.60;;
52470;SDS011;38382;53.160;7.026;2022-07-23T04:38:53;4.70;;;3.08;;
52470;SDS011;38382;53.160;7.026;2022-07-23T04:41:19;5.20;;;3.55;;
52470;SDS011;38382;53.160;7.026;2022-07-23T04:43:45;8.02;;;3.15;;
52470;SDS011;38382;53.160;7.026;2022-07-23T04:46:11;8.80;;;5.13;;
52470;SDS011;38382;53.160;7.026;2022-07-23T04:48:37;6.95;;;4.35;;
52470;SDS011;38382;53.160;7.026;2022-07-23T04:51:03;11.38;;;5.13;;
52470;SDS011;38382;53.160;7.026;2022-07-23T04:53:29;8.90;;;4.47;;
52470;SDS011;38382;53.160;7.026;2022-07-23T04:55:54;7.38;;;4.05;;
52470;SDS011;38382;53.160;7.026;2022-07-23T04:58:20;7.88;;;4.18;;
52470;SDS011;38382;53.160;7.026;2022-07-23T05:00:46;6.65;;;4.25;;
52470;SDS011;38382;53.160;7.026;2022-07-23T05:03:13;8.30;;;4.82;;
52470;SDS011;38382;53.160;7.026;2022-07-23T05:05:38;7.40;;;3.65;;
52470;SDS011;38382;53.160;7.026;2022-07-23T05:08:04;7.72;;;4.57;;
52470;SDS011;38382;53.160;7.026;2022-07-23T05:10:30;7.90;;;4.80;;
52470;SDS011;38382;53.160;7.026;2022-07-23T05:12:55;6.97;;;3.92;;
52470;SDS011;38382;53.160;7.026;2022-07-23T05:15:21;6.53;;;3.92;;
52470;SDS011;38382;53.160;7.026;2022-07-23T05:17:48;9.23;;;4.10;;
52470;SDS011;38382;53.160;7.026;2022-07-23T05:20:14;5.95;;;3.70;;
52470;SDS011;38382;53.160;7.026;2022-07-23T05:22:40;9.27;;;4.18;;
52470;SDS011;38382;53.160;7.026;2022-07-23T05:25:06;6.75;;;4.03;;
52470;SDS011;38382;53.160;7.026;2022-07-23T05:27:35;7.78;;;4.32;;
52470;SDS011;38382;53.160;7.026;2022-07-23T05:30:01;9.23;;;3.95;;
52470;SDS011;38382;53.160;7.026;2022-07-23T05:32:27;6.78;;;3.60;;
52470;SDS011;38382;53.160;7.026;2022-07-23T05:34:52;6.63;;;3.67;;
52470;SDS011;38382;53.160;7.026;2022-07-23T05:37:18;8.18;;;3.75;;
52470;SDS011;38382;53.160;7.026;2022-07-23T05:39:44;8.50;;;3.63;;
52470;SDS011;38382;53.160;7.026;2022-07-23T05:42:09;7.75;;;3.90;;
52470;SDS011;38382;53.160;7.026;2022-07-23T05:44:35;9.52;;;3.80;;
52470;SDS011;38382;53.160;7.026;2022-07-23T05:47:01;7.75;;;3.88;;
52470;SDS011;38382;53.160;7.026;2022-07-23T05:49:27;6.80;;;3.20;;
52470;SDS011;38382;53.160;7.026;2022-07-23T05:51:52;5.93;;;3.13;;
52470;SDS011;38382;53.160;7.026;2022-07-23T05:54:18;6.78;;;3.13;;
52470;SDS011;38382;53.160;7.026;2022-07-23T05:56:44;7.70;;;3.35;;
52470;SDS011;38382;53.160;7.026;2022-07-23T05:59:09;4.43;;;2.92;;
52470;SDS011;38382;53.160;7.026;2022-07-23T06:01:37;8.63;;;3.10;;
52470;SDS011;38382;53.160;7.026;2022-07-23T06:04:02;9.68;;;3.40;;
52470;SDS011;38382;53.160;7.026;2022-07-23T06:06:28;7.80;;;2.90;;
52470;SDS011;38382;53.160;7.026;2022-07-23T06:08:54;6.88;;;3.38;;
52470;SDS011;38382;53.160;7.026;2022-07-23T06:11:20;7.60;;;3.08;;
52470;SDS011;38382;53.160;7.026;2022-07-23T06:13:45;6.55;;;2.90;;
52470;SDS011;38382;53.160;7.026;2022-07-23T06:16:11;5.55;;;2.80;;
52470;SDS011;38382;53.160;7.026;2022-07-23T06:18:36;4.82;;;2.60;;
52470;SDS011;38382;53.160;7.026;2022-07-23T06:21:02;5.13;;;2.60;;
52470;SDS011;38382;53.160;7.026;2022-07-23T06:23:28;7.88;;;2.65;;
52470;SDS011;38382;53.160;7.026;2022-07-23T06:25:53;6.03;;;2.92;;
52470;SDS011;38382;53.160;7.026;2022-07-23T06:28:19;5.70;;;2.60;;
52470;SDS011;38382;53.160;7.026;2022-07-23T06:30:45;5.85;;;2.50;;
52470;SDS011;38382;53.160;7.026;2022-07-23T06:33:10;5.68;;;2.55;;
52470;SDS011;38382;53.160;7.026;2022-07-23T06:35:37;7.55;;;2.80;;
52470;SDS011;38382;53.160;7.026;2022-07-23T06:38:03;4.20;;;2.30;;
52470;SDS011;38382;53.160;7.026;2022-07-23T06:40:28;6.82;;;2.72;;
52470;SDS011;38382;53.160;7.026;2022-07-23T06:42:54;5.30;;;2.45;;
52470;SDS011;38382;53.160;7.026;2022-07-23T06:45:20;4.82;;;2.20;;
52470;SDS011;38382;53.160;7.026;2022-07-23T06:47:46;4.03;;;2.17;;
52470;SDS011;38382;53.160;7.026;2022-07-23T06:50:11;4.13;;;1.92;;
52470;SDS011;38382;53.160;7.026;2022-07-23T06:52:37;5.97;;;2.70;;
52470;SDS011;38382;53.160;7.026;2022-07-23T06:55:03;6.28;;;2.08;;
52470;SDS011;38382;53.160;7.026;2022-07-23T06:57:29;5.80;;;2.40;;
52470;SDS011;38382;53.160;7.026;2022-07-23T06:59:54;3.83;;;2.00;;
52470;SDS011;38382;53.160;7.026;2022-07-23T07:02:20;4.15;;;2.20;;
52470;SDS011;38382;53.160;7.026;2022-07-23T07:04:46;3.58;;;1.95;;
52470;SDS011;38382;53.160;7.026;2022-07-23T07:07:11;7.43;;;2.30;;
52470;SDS011;38382;53.160;7.026;2022-07-23T07:09:37;7.65;;;1.83;;
52470;SDS011;38382;53.160;7.026;2022-07-23T07:12:03;5.78;;;1.92;;
52470;SDS011;38382;53.160;7.026;2022-07-23T07:14:29;8.68;;;2.58;;
52470;SDS011;38382;53.160;7.026;2022-07-23T07:16:55;3.88;;;1.80;;
52470;SDS011;38382;53.160;7.026;2022-07-23T07:19:21;3.75;;;1.70;;
52470;SDS011;38382;53.160;7.026;2022-07-23T07:21:47;5.80;;;1.40;;
52470;SDS011;38382;53.160;7.026;2022-07-23T07:24:12;2.95;;;1.30;;
52470;SDS011;38382;53.160;7.026;2022-07-23T07:26:38;2.25;;;1.30;;
52470;SDS011;38382;53.160;7.026;2022-07-23T07:29:04;4.47;;;1.30;;
52470;SDS011;38382;53.160;7.026;2022-07-23T07:31:32;2.78;;;1.40;;
52470;SDS011;38382;53.160;7.026;2022-07-23T07:33:57;4.68;;;1.58;;
52470;SDS011;38382;53.160;7.026;2022-07-23T07:36:23;5.40;;;1.50;;
52470;SDS011;38382;53.160;7.026;2022-07-23T07:38:49;2.15;;;1.23;;
52470;SDS011;38382;53.160;7.026;2022-07-23T07:41:14;4.47;;;1.45;;
52470;SDS011;38382;53.160;7.026;2022-07-23T07:43:41;4.13;;;1.40;;
52470;SDS011;38382;53.160;7.026;2022-07-23T07:46:06;3.30;;;1.30;;
52470;SDS011;38382;53.160;7.026;2022-07-23T07:48:39;2.78;;;1.25;;
52470;SDS011;38382;53.160;7.026;2022-07-23T07:51:04;1.70;;;1.00;;
52470;SDS011;38382;53.160;7.026;2022-07-23T07:53:30;2.72;;;1.10;;
52470;SDS011;38382;53.160;7.026;2022-07-23T07:55:56;4.25;;;1.35;;
52470;SDS011;38382;53.160;7.026;2022-07-23T07:58:22;2.92;;;1.30;;
52470;SDS011;38382;53.160;7.026;2022-07-23T08:00:47;3.88;;;1.30;;
52470;SDS011;38382;53.160;7.026;2022-07-23T08:03:13;1.60;;;0.95;;
52470;SDS011;38382;53.160;7.026;2022-07-23T08:05:39;1.55;;;0.95;;
52470;SDS011;38382;53.160;7.026;2022-07-23T08:08:05;3.33;;;1.13;;
52470;SDS011;38382;53.160;7.026;2022-07-23T08:10:31;2.65;;;1.00;;
52470;SDS011;38382;53.160;7.026;2022-07-23T08:12:57;2.72;;;1.02;;
52470;SDS011;38382;53.160;7.026;2022-07-23T08:15:24;1.55;;;0.85;;
52470;SDS011;38382;53.160;7.026;2022-07-23T08:17:52;1.65;;;0.95;;
52470;SDS011;38382;53.160;7.026;2022-07-23T08:20:19;1.30;;;0.88;;
52470;SDS011;38382;53.160;7.026;2022-07-23T08:25:23;1.73;;;1.00;;
52470;SDS011;38382;53.160;7.026;2022-07-23T08:27:53;1.58;;;0.98;;
52470;SDS011;38382;53.160;7.026;2022-07-23T08:30:19;3.08;;;1.10;;
52470;SDS011;38382;53.160;7.026;2022-07-23T08:35:44;3.65;;;1.10;;
52470;SDS011;38382;53.160;7.026;2022-07-23T08:38:13;3.30;;;1.02;;
52470;SDS011;38382;53.160;7.026;2022-07-23T08:40:44;1.90;;;1.00;;
52470;SDS011;38382;53.160;7.026;2022-07-23T08:43:13;1.83;;;1.05;;
52470;SDS011;38382;53.160;7.026;2022-07-23T08:45:48;1.70;;;1.00;;
52470;SDS011;38382;53.160;7.026;2022-07-23T08:48:17;2.75;;;1.00;;
52470;SDS011;38382;53.160;7.026;2022-07-23T08:50:48;2.38;;;1.15;;
52470;SDS011;38382;53.160;7.026;2022-07-23T08:53:16;2.00;;;1.00;;
52470;SDS011;38382;53.160;7.026;2022-07-23T08:55:44;2.75;;;1.50;;
52470;SDS011;38382;53.160;7.026;2022-07-23T08:58:11;1.55;;;0.98;;
52470;SDS011;38382;53.160;7.026;2022-07-23T09:00:40;1.88;;;0.90;;
52470;SDS011;38382;53.160;7.026;2022-07-23T09:03:06;3.20;;;1.00;;
52470;SDS011;38382;53.160;7.026;2022-07-23T09:05:31;3.05;;;0.80;;
52470;SDS011;38382;53.160;7.026;2022-07-23T09:08:08;1.75;;;1.00;;
52470;SDS011;38382;53.160;7.026;2022-07-23T09:10:46;2.20;;;0.97;;
52470;SDS011;38382;53.160;7.026;2022-07-23T09:13:24;1.33;;;0.90;;
52470;SDS011;38382;53.160;7.026;2022-07-23T09:15:51;4.03;;;1.13;;
52470;SDS011;38382;53.160;7.026;2022-07-23T09:18:18;3.75;;;1.00;;
52470;SDS011;38382;53.160;7.026;2022-07-23T09:20:44;3.20;;;0.85;;
52470;SDS011;38382;53.160;7.026;2022-07-23T09:23:10;2.85;;;1.00;;
52470;SDS011;38382;53.160;7.026;2022-07-23T09:25:36;2.67;;;1.00;;
52470;SDS011;38382;53.160;7.026;2022-07-23T09:28:02;1.50;;;0.90;;
52470;SDS011;38382;53.160;7.026;2022-07-23T09:30:29;1.40;;;0.90;;
52470;SDS011;38382;53.160;7.026;2022-07-23T09:33:12;2.50;;;1.10;;
52470;SDS011;38382;53.160;7.026;2022-07-23T09:38:12;5.68;;;1.10;;
52470;SDS011;38382;53.160;7.026;2022-07-23T09:40:38;3.80;;;1.20;;
52470;SDS011;38382;53.160;7.026;2022-07-23T09:43:03;1.85;;;1.00;;
52470;SDS011;38382;53.160;7.026;2022-07-23T09:45:29;2.75;;;1.00;;
52470;SDS011;38382;53.160;7.026;2022-07-23T09:48:14;2.03;;;0.90;;
52470;SDS011;38382;53.160;7.026;2022-07-23T09:50:42;2.42;;;1.00;;
52470;SDS011;38382;53.160;7.026;2022-07-23T09:53:08;3.80;;;1.00;;
52470;SDS011;38382;53.160;7.026;2022-07-23T09:55:35;2.55;;;1.00;;
52470;SDS011;38382;53.160;7.026;2022-07-23T09:58:07;2.95;;;0.73;;
52470;SDS011;38382;53.160;7.026;2022-07-23T10:00:39;2.13;;;1.00;;
52470;SDS011;38382;53.160;7.026;2022-07-23T10:03:07;1.80;;;0.80;;
52470;SDS011;38382;53.160;7.026;2022-07-23T10:05:34;2.05;;;0.77;;
52470;SDS011;38382;53.160;7.026;2022-07-23T10:08:01;3.10;;;1.08;;
52470;SDS011;38382;53.160;7.026;2022-07-23T10:10:28;1.60;;;0.90;;
52470;SDS011;38382;53.160;7.026;2022-07-23T10:12:55;3.15;;;1.00;;
52470;SDS011;38382;53.160;7.026;2022-07-23T10:15:23;2.20;;;1.10;;
52470;SDS011;38382;53.160;7.026;2022-07-23T10:17:50;1.75;;;1.00;;
52470;SDS011;38382;53.160;7.026;2022-07-23T10:20:16;3.88;;;1.10;;
52470;SDS011;38382;53.160;7.026;2022-07-23T10:22:43;1.10;;;0.80;;
52470;SDS011;38382;53.160;7.026;2022-07-23T10:28:33;2.72;;;0.90;;
52470;SDS011;38382;53.160;7.026;2022-07-23T10:34:30;3.40;;;1.10;;
52470;SDS011;38382;53.160;7.026;2022-07-23T10:37:29;2.22;;;0.93;;
52470;SDS011;38382;53.160;7.026;2022-07-23T10:42:36;2.03;;;0.93;;
52470;SDS011;38382;53.160;7.026;2022-07-23T10:45:05;2.42;;;1.10;;
52470;SDS011;38382;53.160;7.026;2022-07-23T10:50:22;2.75;;;1.00;;
52470;SDS011;38382;53.160;7.026;2022-07-23T10:53:08;2.03;;;0.90;;
52470;SDS011;38382;53.160;7.026;2022-07-23T10:55:48;2.85;;;1.25;;
52470;SDS011;38382;53.160;7.026;2022-07-23T10:58:21;2.42;;;1.00;;
52470;SDS011;38382;53.160;7.026;2022-07-23T11:00:49;2.63;;;1.38;;
52470;SDS011;38382;53.160;7.026;2022-07-23T11:03:28;2.20;;;1.00;;
52470;SDS011;38382;53.160;7.026;2022-07-23T11:05:57;3.63;;;1.10;;
52470;SDS011;38382;53.160;7.026;2022-07-23T11:08:23;3.30;;;1.20;;
52470;SDS011;38382;53.160;7.026;2022-07-23T11:10:53;2.63;;;1.02;;
52470;SDS011;38382;53.160;7.026;2022-07-23T11:13:32;3.80;;;1.00;;
52470;SDS011;38382;53.160;7.026;2022-07-23T11:31:53;2.47;;;0.93;;
52470;SDS011;38382;53.160;7.026;2022-07-23T11:34:35;3.33;;;1.08;;
52470;SDS011;38382;53.160;7.026;2022-07-23T11:37:07;2.88;;;1.13;;
52470;SDS011;38382;53.160;7.026;2022-07-23T11:39:35;1.95;;;1.00;;
52470;SDS011;38382;53.160;7.026;2022-07-23T11:42:02;3.28;;;1.10;;
52470;SDS011;38382;53.160;7.026;2022-07-23T11:44:32;2.65;;;1.15;;
52470;SDS011;38382;53.160;7.026;2022-07-23T11:47:04;3.00;;;1.10;;
52470;SDS011;38382;53.160;7.026;2022-07-23T11:49:31;2.00;;;1.00;;
52470;SDS011;38382;53.160;7.026;2022-07-23T11:52:04;3.65;;;1.30;;
52470;SDS011;38382;53.160;7.026;2022-07-23T11:57:06;3.17;;;1.30;;
52470;SDS011;38382;53.160;7.026;2022-07-23T11:59:32;2.33;;;1.23;;
52470;SDS011;38382;53.160;7.026;2022-07-23T12:01:59;3.05;;;1.20;;
52470;SDS011;38382;53.160;7.026;2022-07-23T12:04:45;3.92;;;1.20;;
52470;SDS011;38382;53.160;7.026;2022-07-23T12:12:48;3.88;;;1.30;;
52470;SDS011;38382;53.160;7.026;2022-07-23T12:15:26;2.47;;;1.30;;
52470;SDS011;38382;53.160;7.026;2022-07-23T12:17:55;3.15;;;1.48;;
52470;SDS011;38382;53.160;7.026;2022-07-23T12:20:23;4.20;;;1.75;;
52470;SDS011;38382;53.160;7.026;2022-07-23T12:22:51;3.13;;;1.35;;
52470;SDS011;38382;53.160;7.026;2022-07-23T12:25:21;6.55;;;1.40;;
52470;SDS011;38382;53.160;7.026;2022-07-23T12:28:10;3.17;;;1.48;;
52470;SDS011;38382;53.160;7.026;2022-07-23T12:30:49;3.78;;;1.50;;
52470;SDS011;38382;53.160;7.026;2022-07-23T12:33:26;3.25;;;1.58;;
52470;SDS011;38382;53.160;7.026;2022-07-23T12:35:57;3.58;;;1.48;;
52470;SDS011;38382;53.160;7.026;2022-07-23T12:38:25;3.78;;;1.50;;
52470;SDS011;38382;53.160;7.026;2022-07-23T12:40:53;3.30;;;1.77;;
52470;SDS011;38382;53.160;7.026;2022-07-23T12:43:23;3.67;;;1.40;;
52470;SDS011;38382;53.160;7.026;2022-07-23T12:45:54;2.42;;;1.40;;
52470;SDS011;38382;53.160;7.026;2022-07-23T12:48:39;3.33;;;1.30;;
52470;SDS011;38382;53.160;7.026;2022-07-23T12:51:19;3.53;;;1.40;;
52470;SDS011;38382;53.160;7.026;2022-07-23T12:53:47;4.60;;;1.45;;
52470;SDS011;38382;53.160;7.026;2022-07-23T12:56:19;4.28;;;1.70;;
52470;SDS011;38382;53.160;7.026;2022-07-23T12:58:59;2.85;;;1.60;;
52470;SDS011;38382;53.160;7.026;2022-07-23T13:04:24;2.92;;;1.40;;
52470;SDS011;38382;53.160;7.026;2022-07-23T13:09:17;2.85;;;1.40;;
52470;SDS011;38382;53.160;7.026;2022-07-23T13:11:45;4.32;;;1.80;;
52470;SDS011;38382;53.160;7.026;2022-07-23T13:14:12;2.30;;;1.27;;
52470;SDS011;38382;53.160;7.026;2022-07-23T13:16:38;3.35;;;1.40;;
52470;SDS011;38382;53.160;7.026;2022-07-23T13:19:04;4.32;;;1.60;;
52470;SDS011;38382;53.160;7.026;2022-07-23T13:21:32;3.33;;;1.20;;
52470;SDS011;38382;53.160;7.026;2022-07-23T13:23:58;3.65;;;1.30;;
52470;SDS011;38382;53.160;7.026;2022-07-23T13:26:24;2.40;;;1.48;;
52470;SDS011;38382;53.160;7.026;2022-07-23T13:28:51;4.00;;;1.40;;
52470;SDS011;38382;53.160;7.026;2022-07-23T13:31:19;2.70;;;1.40;;
52470;SDS011;38382;53.160;7.026;2022-07-23T13:33:45;2.55;;;1.35;;
52470;SDS011;38382;53.160;7.026;2022-07-23T13:36:11;2.28;;;1.20;;
52470;SDS011;38382;53.160;7.026;2022-07-23T13:38:37;3.53;;;1.50;;
52470;SDS011;38382;53.160;7.026;2022-07-23T13:41:04;5.32;;;1.50;;
52470;SDS011;38382;53.160;7.026;2022-07-23T13:43:30;4.47;;;1.67;;
52470;SDS011;38382;53.160;7.026;2022-07-23T13:45:56;2.88;;;1.35;;
52470;SDS011;38382;53.160;7.026;2022-07-23T13:48:22;3.78;;;1.45;;
52470;SDS011;38382;53.160;7.026;2022-07-23T13:50:48;2.53;;;1.15;;
52470;SDS011;38382;53.160;7.026;2022-07-23T13:53:16;2.80;;;1.30;;
52470;SDS011;38382;53.160;7.026;2022-07-23T13:55:43;4.88;;;1.58;;
52470;SDS011;38382;53.160;7.026;2022-07-23T13:58:10;4.05;;;1.50;;
52470;SDS011;38382;53.160;7.026;2022-07-23T14:00:41;4.78;;;1.20;;
52470;SDS011;38382;53.160;7.026;2022-07-23T14:03:09;2.40;;;1.20;;
52470;SDS011;38382;53.160;7.026;2022-07-23T14:05:35;2.83;;;1.50;;
52470;SDS011;38382;53.160;7.026;2022-07-23T14:08:01;4.05;;;1.38;;
52470;SDS011;38382;53.160;7.026;2022-07-23T14:10:28;2.88;;;1.40;;
52470;SDS011;38382;53.160;7.026;2022-07-23T14:12:54;2.95;;;1.30;;
52470;SDS011;38382;53.160;7.026;2022-07-23T14:15:21;3.22;;;1.27;;
52470;SDS011;38382;53.160;7.026;2022-07-23T14:17:48;4.20;;;1.63;;
52470;SDS011;38382;53.160;7.026;2022-07-23T14:20:13;3.42;;;1.38;;
52470;SDS011;38382;53.160;7.026;2022-07-23T14:22:39;4.35;;;1.40;;
52470;SDS011;38382;53.160;7.026;2022-07-23T14:25:06;3.92;;;1.23;;
52470;SDS011;38382;53.160;7.026;2022-07-23T14:27:32;3.45;;;1.20;;
52470;SDS011;38382;53.160;7.026;2022-07-23T14:29:58;3.80;;;1.30;;
52470;SDS011;38382;53.160;7.026;2022-07-23T14:32:24;2.50;;;1.10;;
52470;SDS011;38382;53.160;7.026;2022-07-23T14:34:50;3.30;;;1.27;;
52470;SDS011;38382;53.160;7.026;2022-07-23T14:37:16;3.20;;;1.20;;
52470;SDS011;38382;53.160;7.026;2022-07-23T14:39:43;3.38;;;1.30;;
52470;SDS011;38382;53.160;7.026;2022-07-23T14:42:09;2.53;;;1.35;;
52470;SDS011;38382;53.160;7.026;2022-07-23T14:44:37;3.35;;;1.20;;
52470;SDS011;38382;53.160;7.026;2022-07-23T14:47:03;3.58;;;1.23;;
52470;SDS011;38382;53.160;7.026;2022-07-23T14:49:30;2.88;;;1.10;;
52470;SDS011;38382;53.160;7.026;2022-07-23T14:51:57;2.30;;;1.10;;
52470;SDS011;38382;53.160;7.026;2022-07-23T14:54:24;3.20;;;1.20;;
52470;SDS011;38382;53.160;7.026;2022-07-23T14:56:54;2.78;;;1.08;;
52470;SDS011;38382;53.160;7.026;2022-07-23T14:59:21;2.22;;;1.10;;
52470;SDS011;38382;53.160;7.026;2022-07-23T15:01:47;2.10;;;1.05;;
52470;SDS011;38382;53.160;7.026;2022-07-23T15:04:13;4.13;;;1.23;;
52470;SDS011;38382;53.160;7.026;2022-07-23T15:06:39;2.15;;;1.02;;
52470;SDS011;38382;53.160;7.026;2022-07-23T15:09:05;3.05;;;1.27;;
52470;SDS011;38382;53.160;7.026;2022-07-23T15:11:31;3.67;;;1.30;;
52470;SDS011;38382;53.160;7.026;2022-07-23T15:14:00;3.65;;;1.20;;
52470;SDS011;38382;53.160;7.026;2022-07-23T15:16:26;2.42;;;1.10;;
52470;SDS011;38382;53.160;7.026;2022-07-23T15:18:52;1.77;;;1.00;;
52470;SDS011;38382;53.160;7.026;2022-07-23T15:21:18;1.77;;;1.00;;
52470;SDS011;38382;53.160;7.026;2022-07-23T15:23:44;4.88;;;1.30;;
52470;SDS011;38382;53.160;7.026;2022-07-23T15:26:10;2.00;;;1.00;;
52470;SDS011;38382;53.160;7.026;2022-07-23T15:28:36;2.90;;;1.20;;
52470;SDS011;38382;53.160;7.026;2022-07-23T15:31:02;2.25;;;1.20;;
52470;SDS011;38382;53.160;7.026;2022-07-23T15:33:28;2.17;;;1.02;;
52470;SDS011;38382;53.160;7.026;2022-07-23T15:35:54;3.00;;;1.20;;
52470;SDS011;38382;53.160;7.026;2022-07-23T15:38:24;2.00;;;1.20;;